Aviation Digital Data Service (ADDS)

Output produced by METARs form (1823 UTC 22 November 2017)
found at http://www.aviationweather.gov/adds/metars/
 
DIBK 221700Z 20006KT 9999 BKN013 31/22 Q1011
TAF DIBK 221700Z 2218/2318 20008KT 8000 SCT013 
     TEMPO 2218/2221 BKN013 
     PROB30 
     TEMPO 2305/2308 3000 BR 
     BECMG 2309/2311 BKN015
       
DIAP 221800Z 25007KT 230V310 8000 -TSRA BKN010 FEW020CB OVC030 24/23 Q1009 RERA BECMG NSW SCT012 FEW020CB
TAF COR DIAP 221700Z 2218/2324 22008KT 8000 BKN012 
     PROB40 
     TEMPO 2218/2224 3000 TSRA BKN010 FEW020CB 
     BECMG 2222/2302 NSW SCT011 
     TEMPO 2306/2310 BKN012 
     PROB30 
     TEMPO 2315/2321 TS BKN012 FEW020CB 
     PROB30 
     TEMPO 2316/2320 4000 TSRA
       
TAF DIYO 221700Z 2218/2318 24008KT 8000 SCT012 
     TEMPO 2218/2221 BKN012 
     PROB30 
     TEMPO 2305/2308 2000 BR 
     BECMG 2309/2311 BKN012 
     PROB30 2315/2318 SCT013 FEW025CB